createdAt,value
2019-04-25T00:00:13.856Z,33.30
2019-04-25T00:02:44.988Z,33.30
2019-04-25T00:05:13.989Z,33.00
2019-04-25T00:07:43.893Z,34.00
2019-04-25T00:10:13.967Z,33.50
2019-04-25T00:12:44.576Z,34.30
2019-04-25T00:15:15.547Z,34.00
2019-04-25T00:17:46.184Z,34.40
2019-04-25T00:20:16.179Z,33.90
2019-04-25T00:22:57.267Z,34.30
2019-04-25T00:25:28.460Z,34.50
2019-04-25T00:27:58.059Z,35.10
2019-04-25T00:30:28.405Z,35.00
2019-04-25T00:32:57.956Z,34.60
2019-04-25T00:35:29.502Z,35.30
2019-04-25T00:37:59.056Z,36.00
2019-04-25T00:40:28.236Z,34.50
2019-04-25T00:42:57.707Z,34.90
2019-04-25T00:45:27.171Z,35.10
2019-04-25T00:47:56.843Z,34.50
2019-04-25T00:50:26.459Z,35.40
2019-04-25T00:52:55.263Z,35.60
2019-04-25T00:55:28.614Z,35.40
2019-04-25T00:57:57.557Z,35.90
2019-04-25T01:00:28.680Z,35.40
2019-04-25T01:03:01.645Z,35.70
2019-04-25T01:05:31.589Z,35.70
2019-04-25T01:08:02.123Z,35.50
2019-04-25T01:10:32.013Z,35.80
2019-04-25T01:13:03.082Z,36.00
2019-04-25T01:15:33.942Z,36.20
2019-04-25T01:18:04.871Z,36.70
2019-04-25T01:20:37.027Z,35.80
2019-04-25T01:23:06.451Z,36.50
2019-04-25T01:25:40.936Z,36.20
2019-04-25T01:28:06.400Z,36.70
2019-04-25T01:30:35.269Z,35.80
2019-04-25T01:33:05.391Z,36.00
2019-04-25T01:35:36.588Z,36.50
2019-04-25T01:46:55.626Z,35.60
2019-04-25T01:49:26.394Z,35.60
2019-04-25T01:51:57.432Z,36.20
2019-04-25T01:54:27.516Z,36.40
2019-04-25T01:56:57.364Z,36.40
2019-04-25T01:59:27.012Z,35.80
2019-04-25T02:01:56.814Z,35.90
2019-04-25T02:04:26.481Z,35.80
2019-04-25T02:06:55.688Z,36.50
2019-04-25T02:09:25.671Z,37.10
2019-04-25T02:11:56.892Z,36.10
2019-04-25T02:14:27.572Z,37.00
2019-04-25T02:16:58.480Z,36.80
2019-04-25T02:19:30.099Z,37.00
2019-04-25T02:21:59.943Z,37.50
2019-04-25T02:24:29.680Z,37.30
2019-04-25T02:26:59.234Z,36.90
2019-04-25T02:29:28.103Z,36.80
2019-04-25T02:32:00.257Z,37.30
2019-04-25T02:34:28.757Z,37.70
2019-04-25T02:37:00.706Z,37.20
2019-04-25T02:39:29.232Z,37.80
2019-04-25T02:42:01.048Z,37.50
2019-04-25T02:44:31.599Z,37.80
2019-04-25T02:47:06.489Z,38.00
2019-04-25T02:49:44.772Z,38.90
2019-04-25T02:55:10.296Z,38.00
2019-04-25T02:57:38.172Z,38.40
2019-04-25T03:00:08.830Z,38.90
2019-04-25T03:02:38.767Z,38.20
2019-04-25T03:05:09.765Z,37.90
2019-04-25T03:07:38.746Z,38.80
2019-04-25T03:10:09.816Z,38.10
2019-04-25T03:12:39.567Z,38.30
2019-04-25T03:15:10.252Z,38.00
2019-04-25T03:17:39.980Z,38.00
2019-04-25T03:20:28.423Z,38.00
2019-04-25T03:23:19.977Z,38.00
2019-04-25T03:25:49.596Z,37.80
2019-04-25T03:28:18.467Z,37.80
2019-04-25T03:30:47.994Z,38.00
2019-04-25T03:33:38.405Z,38.00
2019-04-25T03:36:19.496Z,37.70
2019-04-25T03:38:48.984Z,37.90
2019-04-25T03:41:18.456Z,37.90
2019-04-25T03:43:47.251Z,38.80
2019-04-25T03:46:18.015Z,38.30
2019-04-25T03:48:47.806Z,38.30
2019-04-25T03:51:16.608Z,38.10
2019-04-25T03:53:46.076Z,38.70
2019-04-25T03:56:14.871Z,38.00
2019-04-25T03:58:44.266Z,38.40
2019-04-25T04:01:15.612Z,38.20
2019-04-25T04:03:45.141Z,38.70
2019-04-25T04:06:15.228Z,37.70
2019-04-25T04:08:45.199Z,37.80
2019-04-25T04:11:15.496Z,37.70
2019-04-25T04:13:45.332Z,38.30
2019-04-25T04:16:15.793Z,38.30
2019-04-25T04:18:46.819Z,38.10
2019-04-25T04:21:33.268Z,37.50
2019-04-25T04:24:27.155Z,37.90
2019-04-25T04:27:06.724Z,40.30
2019-04-25T04:29:35.714Z,37.90
2019-04-25T04:32:04.503Z,36.90
2019-04-25T04:34:33.964Z,37.50
2019-04-25T04:37:03.726Z,37.00
2019-04-25T04:39:33.885Z,37.10
2019-04-25T04:42:03.904Z,37.70
2019-04-25T04:44:34.348Z,36.50
2019-04-25T04:47:05.096Z,36.90
2019-04-25T04:49:34.186Z,36.60
2019-04-25T04:55:07.682Z,37.70
2019-04-25T04:57:34.160Z,37.00
2019-04-25T05:00:03.636Z,36.80
2019-04-25T05:02:53.278Z,36.90
2019-04-25T05:05:27.312Z,36.60
2019-04-25T05:07:58.495Z,37.20
2019-04-25T05:10:28.048Z,37.30
2019-04-25T05:12:56.907Z,36.10
2019-04-25T05:15:26.443Z,36.70
2019-04-25T05:17:55.222Z,37.00
2019-04-25T05:20:24.642Z,37.00
2019-04-25T05:22:54.918Z,35.80
2019-04-25T05:25:26.127Z,36.60
2019-04-25T05:28:02.859Z,36.70
2019-04-25T05:33:10.065Z,36.20
2019-04-25T05:35:38.858Z,36.90
2019-04-25T05:38:08.275Z,36.40
2019-04-25T05:40:39.396Z,35.80
2019-04-25T05:43:29.575Z,36.80
2019-04-25T05:46:00.127Z,36.80
2019-04-25T05:48:28.938Z,35.60
2019-04-25T05:51:11.004Z,35.80
2019-04-25T05:53:40.555Z,36.80
2019-04-25T05:56:09.432Z,36.10
2019-04-25T05:58:38.911Z,36.60
2019-04-25T06:01:07.690Z,36.50
2019-04-25T06:03:37.099Z,35.60
2019-04-25T06:06:06.711Z,35.90
2019-04-25T06:08:38.935Z,36.20
2019-04-25T06:11:16.019Z,35.60
2019-04-25T06:13:47.146Z,37.10
2019-04-25T06:16:27.062Z,35.70
2019-04-25T06:19:19.711Z,35.30
2019-04-25T06:21:49.289Z,36.50
2019-04-25T06:24:20.518Z,36.00
2019-04-25T06:27:08.032Z,35.00
2019-04-25T06:29:37.579Z,35.90
2019-04-25T06:32:08.497Z,33.70
2019-04-25T06:34:37.551Z,31.10
2019-04-25T06:37:19.194Z,31.20
2019-04-25T06:39:48.758Z,33.50
2019-04-25T06:42:19.115Z,30.20
2019-04-25T06:44:56.132Z,29.90
2019-04-25T06:47:39.215Z,29.40
2019-04-25T06:50:08.776Z,28.70
2019-04-25T06:52:37.551Z,27.20
2019-04-25T06:55:07.093Z,26.80
2019-04-25T06:57:36.639Z,27.00
2019-04-25T07:00:09.555Z,26.50
2019-04-25T07:02:39.189Z,29.20
2019-04-25T07:05:09.810Z,26.50
2019-04-25T07:07:40.623Z,26.20
2019-04-25T07:10:10.252Z,25.20
2019-04-25T07:12:39.812Z,25.50
2019-04-25T07:15:13.777Z,22.00
2019-04-25T07:17:45.469Z,29.50
2019-04-25T07:20:14.830Z,23.60
2019-04-25T07:22:43.849Z,23.90
2019-04-25T07:25:13.971Z,24.00
2019-04-25T07:28:03.306Z,23.10
2019-04-25T07:30:48.634Z,22.70
2019-04-25T07:35:55.267Z,22.00
2019-04-25T07:38:24.754Z,22.50
2019-04-25T07:40:54.883Z,20.60
2019-04-25T07:43:23.742Z,19.10
2019-04-25T07:45:53.569Z,21.50
2019-04-25T07:48:24.793Z,20.50
2019-04-25T07:50:54.589Z,19.40
2019-04-25T07:53:26.995Z,19.40
2019-04-25T07:55:55.320Z,20.50
2019-04-25T07:58:38.222Z,20.00
2019-04-25T08:00:59.220Z,21.30
2019-04-25T08:03:28.779Z,19.50
2019-04-25T08:05:59.932Z,19.20
2019-04-25T08:08:29.758Z,20.00
2019-04-25T08:11:08.359Z,19.40
2019-04-25T08:13:39.883Z,20.20
2019-04-25T08:16:11.167Z,19.20
2019-04-25T08:18:40.779Z,19.60
2019-04-25T08:21:10.267Z,19.20
2019-04-25T08:23:41.011Z,19.20
2019-04-25T08:26:31.103Z,17.90
2019-04-25T08:29:00.715Z,19.70
2019-04-25T08:31:31.091Z,18.50
2019-04-25T08:34:00.925Z,20.00
2019-04-25T08:36:31.161Z,16.60
2019-04-25T08:39:00.987Z,16.90
2019-04-25T08:41:34.161Z,17.80
2019-04-25T08:44:04.080Z,17.40
2019-04-25T08:46:35.803Z,17.40
2019-04-25T08:49:19.116Z,17.10
2019-04-25T08:51:50.300Z,17.40
2019-04-25T08:54:40.073Z,16.80
2019-04-25T08:57:09.119Z,16.70
2019-04-25T08:59:44.735Z,18.20
2019-04-25T09:02:13.593Z,17.70
2019-04-25T09:04:44.869Z,17.70
2019-04-25T09:07:14.336Z,18.00
2019-04-25T09:09:43.983Z,17.90
2019-04-25T09:12:14.270Z,18.20
2019-04-25T09:14:46.295Z,16.20
2019-04-25T09:17:14.999Z,16.40
2019-04-25T09:19:45.337Z,17.80
2019-04-25T09:22:15.073Z,17.20
2019-04-25T09:24:45.361Z,16.60
2019-04-25T09:27:15.139Z,16.90
2019-04-25T09:29:46.327Z,18.20
2019-04-25T09:32:16.925Z,17.30
2019-04-25T09:34:46.624Z,17.60
2019-04-25T09:37:16.100Z,17.60
2019-04-25T09:39:49.477Z,17.70
2019-04-25T09:42:18.948Z,18.80
2019-04-25T09:44:53.739Z,17.50
2019-04-25T09:47:23.483Z,16.80
2019-04-25T09:49:53.840Z,16.80
2019-04-25T09:52:24.526Z,17.50
2019-04-25T09:54:58.413Z,16.40
2019-04-25T09:57:33.546Z,17.00
2019-04-25T10:00:04.948Z,18.00
2019-04-25T10:02:36.905Z,16.80
2019-04-25T10:05:07.267Z,18.60
2019-04-25T10:07:37.288Z,16.90
2019-04-25T10:10:07.759Z,17.00
2019-04-25T10:12:37.376Z,18.40
2019-04-25T10:15:39.092Z,18.70
2019-04-25T10:18:08.610Z,20.10
2019-04-25T10:20:38.084Z,17.60
2019-04-25T10:23:07.703Z,19.20
2019-04-25T10:25:38.055Z,17.20
2019-04-25T10:28:07.866Z,17.30
2019-04-25T10:30:37.420Z,18.20
2019-04-25T10:33:06.952Z,18.20
2019-04-25T10:35:46.686Z,18.00
2019-04-25T10:38:07.734Z,17.60
2019-04-25T10:40:37.216Z,17.80
2019-04-25T10:43:07.356Z,17.80
2019-04-25T10:45:37.256Z,18.90
2019-04-25T10:48:06.804Z,18.30
2019-04-25T10:50:36.350Z,18.40
2019-04-25T10:53:05.897Z,17.30
2019-04-25T10:55:35.535Z,17.10
2019-04-25T10:58:05.075Z,17.00
2019-04-25T11:00:42.451Z,17.20
2019-04-25T11:03:29.447Z,17.60
2019-04-25T11:05:58.935Z,19.10
2019-04-25T11:08:28.555Z,19.00
2019-04-25T11:10:59.304Z,17.50
2019-04-25T11:13:28.919Z,18.90
2019-04-25T11:15:58.455Z,17.80
2019-04-25T11:18:28.075Z,17.50
2019-04-25T11:20:57.620Z,16.80
2019-04-25T11:23:27.101Z,18.30
2019-04-25T11:25:56.641Z,19.00
2019-04-25T11:28:26.196Z,17.60
2019-04-25T11:30:55.676Z,17.60
2019-04-25T11:33:25.160Z,18.70
2019-04-25T11:35:56.213Z,17.90
2019-04-25T11:38:44.048Z,17.50
2019-04-25T11:41:18.111Z,17.80
2019-04-25T11:44:07.012Z,18.50
2019-04-25T11:46:39.197Z,18.80
2019-04-25T11:49:07.674Z,18.30
2019-04-25T11:51:37.212Z,18.90
2019-04-25T11:54:06.747Z,18.40
2019-04-25T11:56:36.308Z,18.90
2019-04-25T11:59:05.908Z,18.40
2019-04-25T12:01:35.612Z,18.30
2019-04-25T12:04:05.237Z,19.20
2019-04-25T12:06:34.857Z,18.50
2019-04-25T12:09:05.276Z,18.60
2019-04-25T12:11:36.052Z,17.90
2019-04-25T12:14:05.595Z,20.00
2019-04-25T12:16:35.076Z,19.10
2019-04-25T12:19:04.851Z,20.30
2019-04-25T12:21:34.569Z,20.50
2019-04-25T12:24:05.752Z,18.50
2019-04-25T12:26:35.345Z,19.60
2019-04-25T12:29:04.890Z,18.00
2019-04-25T12:31:34.485Z,17.90
2019-04-25T12:34:03.951Z,18.10
2019-04-25T12:36:34.108Z,19.70
2019-04-25T12:39:07.087Z,18.80
2019-04-25T12:41:38.351Z,20.10
2019-04-25T12:44:18.240Z,20.30
2019-04-25T12:46:50.308Z,19.20
2019-04-25T12:49:20.134Z,20.00
2019-04-25T12:51:49.815Z,19.90
2019-04-25T12:54:19.750Z,19.40
2019-04-25T12:56:50.311Z,19.30
2019-04-25T12:59:19.847Z,17.90
2019-04-25T13:01:49.574Z,20.00
2019-04-25T13:04:19.127Z,18.70
2019-04-25T13:06:48.862Z,19.10
2019-04-25T13:09:18.515Z,19.00
2019-04-25T13:11:48.140Z,19.80
2019-04-25T13:14:17.766Z,18.80
2019-04-25T13:16:47.323Z,20.00
2019-04-25T13:19:23.719Z,20.60
2019-04-25T13:21:47.963Z,20.30
2019-04-25T13:24:17.584Z,20.30
2019-04-25T13:26:53.138Z,19.50
2019-04-25T13:29:27.655Z,20.80
2019-04-25T13:32:13.933Z,20.70
2019-04-25T13:34:48.122Z,20.50
2019-04-25T13:37:17.666Z,20.70
2019-04-25T13:39:47.211Z,19.90
2019-04-25T13:42:16.976Z,20.60
2019-04-25T13:44:46.473Z,22.00
2019-04-25T13:47:15.911Z,21.30
2019-04-25T13:49:44.709Z,20.30
2019-04-25T13:52:14.835Z,22.30
2019-04-25T13:54:44.739Z,20.40
2019-04-25T13:57:14.263Z,21.30
2019-04-25T13:59:44.104Z,20.90
2019-04-25T14:02:15.361Z,20.60
2019-04-25T14:04:44.915Z,21.60
2019-04-25T14:07:14.973Z,20.30
2019-04-25T14:09:44.777Z,21.10
2019-04-25T14:12:15.023Z,21.00
2019-04-25T14:14:44.485Z,21.40
2019-04-25T14:17:14.918Z,22.00
2019-04-25T14:19:45.940Z,23.20
2019-04-25T14:22:15.529Z,22.00
2019-04-25T14:24:45.064Z,22.70
2019-04-25T14:27:16.282Z,22.60
2019-04-25T14:29:45.819Z,22.30
2019-04-25T14:32:15.971Z,22.90
2019-04-25T14:34:45.579Z,23.00
2019-04-25T14:37:15.071Z,23.40
2019-04-25T14:39:44.607Z,22.50
2019-04-25T14:42:14.102Z,23.80
2019-04-25T14:47:40.236Z,23.90
2019-04-25T14:50:09.856Z,22.40
2019-04-25T14:52:39.419Z,22.60
2019-04-25T14:55:13.250Z,21.80
2019-04-25T14:57:42.895Z,24.30
2019-04-25T15:00:16.995Z,23.50
2019-04-25T15:02:46.604Z,22.30
2019-04-25T15:05:16.089Z,22.80
2019-04-25T15:07:45.636Z,22.70
2019-04-25T15:10:15.187Z,22.20
2019-04-25T15:12:44.667Z,23.60
2019-04-25T15:15:13.530Z,23.20
2019-04-25T15:17:46.483Z,25.10
2019-04-25T15:20:14.019Z,23.50
2019-04-25T15:22:42.871Z,23.50
2019-04-25T15:25:12.507Z,27.20
2019-04-25T15:27:42.240Z,25.90
2019-04-25T15:30:13.360Z,24.70
2019-04-25T15:32:42.848Z,23.10
2019-04-25T15:35:13.961Z,25.40
2019-04-25T15:37:45.088Z,24.80
2019-04-25T15:40:16.201Z,25.10
2019-04-25T15:42:50.403Z,25.80
2019-04-25T15:45:31.192Z,27.60
2019-04-25T15:48:03.581Z,26.30
2019-04-25T15:50:34.024Z,27.90
2019-04-25T15:53:03.752Z,27.80
2019-04-25T15:55:33.371Z,27.20
2019-04-25T15:58:03.857Z,26.80
2019-04-25T16:00:36.232Z,25.90
2019-04-25T16:03:06.079Z,27.60
2019-04-25T16:05:35.991Z,28.20
2019-04-25T16:08:06.232Z,27.70
2019-04-25T16:10:36.648Z,27.90
2019-04-25T16:13:07.317Z,26.50
2019-04-25T16:15:36.801Z,26.50
2019-04-25T16:18:06.566Z,25.20
2019-04-25T16:20:36.107Z,27.10
2019-04-25T16:23:06.055Z,28.60
2019-04-25T16:25:35.747Z,27.30
2019-04-25T16:28:05.328Z,28.30
2019-04-25T16:30:34.905Z,28.70
2019-04-25T16:33:04.451Z,27.70
2019-04-25T16:35:34.012Z,28.70
2019-04-25T16:38:04.127Z,29.30
2019-04-25T16:40:34.979Z,29.50
2019-04-25T16:43:06.288Z,29.50
2019-04-25T16:45:37.772Z,30.60
2019-04-25T16:48:09.490Z,29.60
2019-04-25T16:50:39.966Z,32.40
2019-04-25T16:53:09.489Z,32.00
2019-04-25T16:55:38.821Z,30.70
2019-04-25T16:58:07.767Z,31.50
2019-04-25T17:00:50.777Z,30.50
2019-04-25T17:03:21.305Z,30.60
2019-04-25T17:05:50.852Z,34.00
2019-04-25T17:08:20.406Z,34.00
2019-04-25T17:10:50.011Z,33.70
2019-04-25T17:13:19.671Z,33.40
2019-04-25T17:16:05.844Z,34.20
2019-04-25T17:21:20.516Z,32.80
2019-04-25T17:23:49.999Z,34.60
2019-04-25T17:26:18.852Z,33.60
2019-04-25T17:28:49.896Z,34.50
2019-04-25T17:31:56.827Z,36.50
2019-04-25T17:37:36.266Z,38.90
2019-04-25T17:40:20.048Z,38.50
2019-04-25T17:42:49.667Z,38.40
2019-04-25T17:45:20.864Z,37.10
2019-04-25T17:47:54.563Z,38.20
2019-04-25T17:50:22.587Z,38.60
2019-04-25T17:52:53.219Z,37.30
2019-04-25T17:55:22.832Z,38.60
2019-04-25T17:57:52.458Z,38.70
2019-04-25T18:03:06.311Z,39.00
2019-04-25T18:05:36.429Z,38.90
2019-04-25T18:08:06.341Z,38.10
2019-04-25T18:10:36.392Z,39.40
2019-04-25T18:13:09.321Z,39.50
2019-04-25T18:18:35.360Z,38.30
2019-04-25T18:21:24.643Z,38.80
2019-04-25T18:24:12.071Z,40.30
2019-04-25T18:26:48.969Z,40.40
2019-04-25T18:29:19.799Z,41.00
2019-04-25T18:31:49.364Z,44.60
2019-04-25T18:34:34.936Z,44.80
2019-04-25T18:37:18.443Z,46.10
2019-04-25T18:39:49.574Z,46.80
2019-04-25T18:42:37.860Z,47.20
2019-04-25T18:45:08.772Z,47.80
2019-04-25T18:47:38.336Z,48.00
2019-04-25T18:50:09.483Z,46.20
2019-04-25T18:52:47.143Z,45.90
2019-04-25T18:55:18.607Z,43.60
2019-04-25T18:57:49.788Z,43.40
2019-04-25T19:00:23.543Z,43.40
2019-04-25T19:03:09.818Z,42.70
2019-04-25T19:05:43.739Z,42.90
2019-04-25T19:08:13.336Z,43.40
2019-04-25T19:10:42.960Z,42.60
2019-04-25T19:13:13.291Z,42.00
2019-04-25T19:15:43.145Z,42.60
2019-04-25T19:18:13.040Z,42.10
2019-04-25T19:20:44.028Z,42.10
2019-04-25T19:23:13.738Z,42.90
2019-04-25T19:25:43.709Z,43.60
2019-04-25T19:28:13.539Z,45.60
2019-04-25T19:30:43.189Z,46.50
2019-04-25T19:33:13.824Z,46.20
2019-04-25T19:35:43.630Z,45.60
2019-04-25T19:38:13.326Z,44.90
2019-04-25T19:40:49.531Z,46.00
2019-04-25T19:43:23.404Z,45.60
2019-04-25T19:45:58.386Z,45.10
2019-04-25T19:48:28.679Z,45.50
2019-04-25T19:50:57.489Z,44.70
2019-04-25T19:53:26.947Z,45.10
2019-04-25T19:55:55.830Z,45.10
2019-04-25T19:58:25.308Z,45.90
2019-04-25T20:00:54.098Z,47.30
2019-04-25T20:06:24.778Z,49.00
2019-04-25T20:11:49.389Z,50.70
2019-04-25T20:14:19.339Z,49.20
2019-04-25T20:16:48.136Z,50.40
2019-04-25T20:19:17.698Z,50.30
2019-04-25T20:21:46.538Z,47.30
2019-04-25T20:24:15.943Z,48.60
2019-04-25T20:27:04.855Z,49.30
2019-04-25T20:29:34.587Z,48.50
2019-04-25T20:32:03.371Z,50.90
2019-04-25T20:34:32.907Z,52.30
2019-04-25T20:37:02.447Z,50.10
2019-04-25T20:39:46.027Z,50.30
2019-04-25T20:42:29.199Z,51.50
2019-04-25T20:44:58.783Z,53.20
2019-04-25T20:47:27.566Z,52.20
2019-04-25T20:49:57.785Z,51.60
2019-04-25T20:52:27.519Z,52.60
2019-04-25T20:54:56.994Z,49.00
2019-04-25T20:57:46.901Z,50.70
2019-04-25T21:00:35.838Z,49.70
2019-04-25T21:03:05.490Z,51.20
2019-04-25T21:05:35.552Z,51.20
2019-04-25T21:08:05.202Z,51.30
2019-04-25T21:10:34.856Z,50.60
2019-04-25T21:13:05.968Z,50.20
2019-04-25T21:15:41.163Z,52.00
2019-04-25T21:18:15.037Z,50.40
2019-04-25T21:20:44.598Z,52.00
2019-04-25T21:23:13.382Z,50.80
2019-04-25T21:25:43.939Z,52.80
2019-04-25T21:28:12.802Z,53.00
2019-04-25T21:30:42.268Z,53.80
2019-04-25T21:33:11.134Z,52.30
2019-04-25T21:35:44.375Z,52.00
2019-04-25T21:38:15.617Z,55.50
2019-04-25T21:41:22.066Z,54.80
2019-04-25T21:43:55.131Z,54.90
2019-04-25T21:46:26.010Z,54.40
2019-04-25T21:48:56.858Z,55.00
2019-04-25T21:51:32.755Z,53.70
2019-04-25T21:54:03.688Z,55.00
2019-04-25T21:59:21.305Z,56.20
2019-04-25T22:01:51.176Z,56.40
2019-04-25T22:04:22.296Z,56.20
2019-04-25T22:07:11.691Z,58.10
2019-04-25T22:09:41.847Z,59.00
2019-04-25T22:12:12.364Z,58.30
2019-04-25T22:14:41.996Z,58.70
2019-04-25T22:17:11.671Z,58.60
2019-04-25T22:19:41.823Z,56.60
2019-04-25T22:22:17.550Z,58.50
2019-04-25T22:24:47.535Z,57.60
2019-04-25T22:27:18.021Z,57.70
2019-04-25T22:29:49.081Z,58.50
2019-04-25T22:32:20.301Z,57.30
2019-04-25T22:34:52.827Z,58.70
2019-04-25T22:37:22.598Z,57.40
2019-04-25T22:39:52.400Z,58.10
2019-04-25T22:42:22.993Z,58.20
2019-04-25T22:44:51.766Z,57.90
2019-04-25T22:47:21.322Z,58.60
2019-04-25T22:49:50.138Z,59.10
2019-04-25T22:52:19.713Z,59.40
2019-04-25T22:54:48.587Z,60.60
2019-04-25T22:57:18.413Z,61.30
2019-04-25T22:59:48.443Z,60.10
2019-04-25T23:06:07.586Z,60.10
2019-04-25T23:08:37.219Z,60.30
2019-04-25T23:11:06.384Z,60.00
2019-04-25T23:13:36.020Z,60.70
2019-04-25T23:16:06.935Z,60.40
2019-04-25T23:18:36.696Z,60.50
2019-04-25T23:21:06.789Z,60.30
2019-04-25T23:23:36.571Z,61.00
2019-04-25T23:26:12.835Z,60.30
2019-04-25T23:28:45.103Z,60.30
2019-04-25T23:31:27.952Z,60.70
2019-04-25T23:33:58.567Z,61.00
2019-04-25T23:36:28.088Z,60.70
2019-04-25T23:38:56.957Z,60.70
2019-04-25T23:41:26.540Z,61.20
2019-04-25T23:43:55.405Z,61.30
2019-04-25T23:46:25.267Z,61.80
2019-04-25T23:48:54.071Z,61.20
2019-04-25T23:51:23.500Z,61.90
2019-04-25T23:53:53.612Z,61.30
2019-04-25T23:56:23.181Z,60.90
2019-04-25T23:58:53.180Z,61.70
